Time;durP1;ratioP1;P1;durP2;ratioP2;P2;SDS_P1;SDS_P2;PMS_P1;PMS_P2;Temp;Humidity;BMP_temperature;BMP_pressure;BME280_temperature;BME280_humidity;BME280_pressure;Samples;Min_cycle;Max_cycle;Signal;HPM_P1;HPM_P2
2022/09/30 00:01:50;;;;;;;15.82;8.90;;;;;;;11.42;90.47;99266.97;4915851;29;20043;-60
2022/09/30 00:04:20;;;;;;;18.70;9.27;;;;;;;11.18;90.15;99232.47;4913862;29;20056;-59
2022/09/30 00:06:46;;;;;;;19.40;8.77;;;;;;;11.29;90.82;99264.06;4912521;29;20062;-59
2022/09/30 00:09:16;;;;;;;17.33;9.10;;;;;;;11.18;91.45;99258.50;4914085;29;20119;-60
2022/09/30 00:11:42;;;;;;;14.73;8.60;;;;;;;11.17;91.09;99263.75;4914165;29;20044;-59
2022/09/30 00:14:13;;;;;;;20.20;8.95;;;;;;;11.13;91.66;99264.81;4913556;29;20056;-60
2022/09/30 00:16:39;;;;;;;15.30;8.30;;;;;;;11.09;91.62;99276.25;4915736;29;20516;-60
2022/09/30 00:19:04;;;;;;;16.83;8.40;;;;;;;11.04;92.82;99274.69;4916104;29;20059;-59
2022/09/30 00:21:32;;;;;;;13.05;8.27;;;;;;;11.00;92.82;99270.53;4911764;29;20048;-60
2022/09/30 00:23:59;;;;;;;16.40;9.02;;;;;;;10.98;92.63;99282.78;4912916;29;20803;-59
2022/09/30 00:26:25;;;;;;;15.73;8.90;;;;;;;10.97;93.36;99290.63;4910902;29;20083;-59
2022/09/30 00:28:53;;;;;;;15.75;8.55;;;;;;;10.97;93.41;99304.47;4912698;29;20043;-58
2022/09/30 00:31:23;;;;;;;14.20;8.13;;;;;;;11.00;93.70;99303.50;4910548;29;20563;-59
2022/09/30 00:34:10;;;;;;;13.75;8.43;;;;;;;11.03;93.36;99298.19;4912747;29;20521;-59
2022/09/30 00:36:44;;;;;;;14.82;8.32;;;;;;;11.03;93.57;99296.41;4912095;29;20516;-59
2022/09/30 00:39:15;;;;;;;17.20;9.25;;;;;;;11.04;92.76;99302.47;4912366;29;20051;-58
2022/09/30 00:41:43;;;;;;;14.15;8.27;;;;;;;11.03;93.20;99306.81;4913707;29;20040;-59
2022/09/30 00:44:46;;;;;;;16.05;8.55;;;;;;;11.01;93.58;99307.78;4914262;29;20071;-60
2022/09/30 00:47:32;;;;;;;13.43;7.68;;;;;;;10.98;93.82;99307.94;4896408;29;20048;-60
2022/09/30 00:50:03;;;;;;;15.40;8.23;;;;;;;10.95;93.54;99308.88;4901130;29;20516;-60
2022/09/30 00:52:31;;;;;;;18.63;8.45;;;;;;;10.97;93.88;99306.22;4913355;29;20103;-57
2022/09/30 00:54:58;;;;;;;14.63;8.68;;;;;;;10.98;93.93;99305.31;4912678;29;20055;-59
2022/09/30 00:57:24;;;;;;;19.52;7.88;;;;;;;11.01;94.38;99308.63;4912189;29;20040;-59
2022/09/30 01:00:15;;;;;;;14.15;8.15;;;;;;;11.06;94.38;99305.84;4912934;29;20044;-58
2022/09/30 01:02:42;;;;;;;15.98;8.30;;;;;;;11.06;94.14;99305.84;4917931;29;20058;-60
2022/09/30 01:05:10;;;;;;;13.40;7.95;;;;;;;11.08;94.17;99314.44;4934092;29;20442;-59
2022/09/30 01:07:38;;;;;;;15.48;7.88;;;;;;;11.09;94.09;99313.53;4917145;29;20138;-59
2022/09/30 01:10:04;;;;;;;13.43;7.72;;;;;;;11.09;94.24;99300.53;4933940;29;20520;-59
2022/09/30 01:12:32;;;;;;;14.25;8.20;;;;;;;11.08;93.63;99304.03;4933320;29;20047;-58
2022/09/30 01:14:58;;;;;;;14.70;8.52;;;;;;;11.08;93.99;99301.44;4933767;29;20435;-57
2022/09/30 01:17:50;;;;;;;14.48;8.27;;;;;;;11.05;94.64;99302.38;4933461;29;20032;-59
2022/09/30 01:20:45;;;;;;;17.73;7.68;;;;;;;11.01;94.02;99297.38;4933625;29;20048;-60
2022/09/30 01:23:37;;;;;;;13.43;8.27;;;;;;;10.98;94.20;99297.53;4871720;29;20071;-60
2022/09/30 01:26:16;;;;;;;12.02;7.72;;;;;;;10.94;94.02;99303.75;4897742;29;20443;-60
2022/09/30 01:29:00;;;;;;;11.02;7.57;;;;;;;10.91;93.94;99309.94;4931658;29;20046;-59
2022/09/30 01:31:35;;;;;;;13.38;7.30;;;;;;;10.90;94.40;99308.22;4916325;29;20059;-59
2022/09/30 01:34:24;;;;;;;16.20;7.90;;;;;;;10.92;94.08;99315.97;4932486;29;20039;-59
2022/09/30 01:37:06;;;;;;;14.05;7.15;;;;;;;10.91;93.93;99316.88;4927310;29;20044;-58
2022/09/30 01:39:51;;;;;;;13.98;7.95;;;;;;;10.89;93.39;99303.09;4915578;29;20427;-57
2022/09/30 01:42:31;;;;;;;13.40;7.40;;;;;;;10.86;93.80;99301.47;4913144;29;20423;-57
2022/09/30 01:45:22;;;;;;;12.95;7.28;;;;;;;10.83;93.71;99304.22;4915234;29;20043;-59
2022/09/30 01:48:01;;;;;;;12.35;7.35;;;;;;;10.77;93.79;99303.63;4893288;29;20052;-59
2022/09/30 01:50:45;;;;;;;;;;;;;;;10.73;93.43;99297.69;4913502;29;20050;-60
2022/09/30 01:53:23;;;;;;;13.65;6.78;;;;;;;10.66;93.87;99301.44;4933085;29;19926;-58
2022/09/30 01:56:00;;;;;;;11.05;6.57;;;;;;;10.59;94.38;99293.06;4932890;29;20044;-60
2022/09/30 01:58:42;;;;;;;13.52;6.60;;;;;;;10.58;94.50;99293.09;4914418;29;20582;-59
2022/09/30 02:01:17;;;;;;;11.73;7.38;;;;;;;10.39;94.77;99272.22;4897008;29;20686;-59
2022/09/30 02:03:54;;;;;;;13.90;7.38;;;;;;;10.52;94.40;99302.00;4915265;29;20060;-59
2022/09/30 02:06:27;;;;;;;13.30;6.53;;;;;;;10.52;95.24;99303.78;4897023;29;20115;-59
2022/09/30 02:09:21;;;;;;;11.13;6.60;;;;;;;10.51;94.38;99302.06;4914842;29;20515;-58
2022/09/30 02:11:49;;;;;;;11.00;7.10;;;;;;;10.48;94.70;99308.22;4921344;29;20055;-58
2022/09/30 02:14:19;;;;;;;18.70;7.18;;;;;;;10.52;94.84;99304.59;4900025;29;20497;-61
2022/09/30 02:17:01;;;;;;;12.80;7.03;;;;;;;10.35;94.50;99275.84;4915136;29;20039;-59
2022/09/30 02:19:35;;;;;;;14.15;7.20;;;;;;;10.55;94.90;99304.50;4914231;29;20048;-58
2022/09/30 02:25:37;;;;;;;12.27;7.50;;;;;;;10.56;94.73;99307.94;4909202;29;20054;-59
2022/09/30 02:28:07;;;;;;;14.65;7.78;;;;;;;10.56;94.90;99302.75;4915432;29;20047;-59
2022/09/30 02:30:35;;;;;;;12.45;7.47;;;;;;;10.24;94.65;99246.00;4915155;29;20130;-58
2022/09/30 02:33:11;;;;;;;14.70;6.78;;;;;;;10.54;94.90;99301.94;4915004;29;20114;-57
2022/09/30 02:35:56;;;;;;;15.48;6.90;;;;;;;10.51;95.13;99308.13;4914733;29;20040;-59
2022/09/30 02:38:28;;;;;;;13.23;7.35;;;;;;;10.46;94.87;99289.28;4929719;29;20633;-61
2022/09/30 02:41:05;;;;;;;12.38;7.80;;;;;;;10.19;95.31;99248.78;4914447;29;20043;-58
2022/09/30 02:43:31;;;;;;;12.65;7.32;;;;;;;10.51;95.34;99300.31;4930935;29;20093;-59
2022/09/30 02:46:22;;;;;;;13.88;7.75;;;;;;;10.51;95.60;99304.69;4932342;29;20040;-59
2022/09/30 02:48:54;;;;;;;13.10;7.95;;;;;;;10.49;95.63;99302.13;4915038;29;20644;-60
2022/09/30 02:51:43;;;;;;;13.32;7.68;;;;;;;10.51;95.88;99302.94;4929995;29;20047;-59
2022/09/30 02:54:31;;;;;;;11.98;7.70;;;;;;;10.52;95.55;99308.97;4904602;29;20051;-59
2022/09/30 02:57:19;;;;;;;11.98;7.53;;;;;;;10.53;95.11;99308.03;4898355;29;20127;-61
2022/09/30 02:59:47;;;;;;;12.23;7.60;;;;;;;10.53;95.34;99306.28;4928753;29;20064;-59
2022/09/30 03:02:14;;;;;;;11.82;7.07;;;;;;;10.39;95.19;99282.63;4914980;29;20055;-59
2022/09/30 03:04:42;;;;;;;14.13;7.90;;;;;;;10.43;95.44;99281.56;4931618;29;20519;-61
2022/09/30 03:07:08;;;;;;;12.82;7.32;;;;;;;10.59;95.48;99315.59;4903292;29;20106;-59
2022/09/30 03:09:38;;;;;;;17.17;7.82;;;;;;;10.57;95.40;99305.25;4914867;29;20074;-59
2022/09/30 03:12:38;;;;;;;12.98;7.53;;;;;;;10.58;95.43;99312.16;4929899;29;20048;-59
2022/09/30 03:15:29;;;;;;;13.05;7.43;;;;;;;10.54;95.54;99315.78;4907752;29;20058;-59
2022/09/30 03:18:36;;;;;;;15.77;7.90;;;;;;;10.54;95.50;99309.75;4915555;29;20138;-59
2022/09/30 03:21:08;;;;;;;13.70;7.32;;;;;;;10.53;94.85;99314.09;4907835;29;20048;-58
2022/09/30 03:23:54;;;;;;;15.38;8.25;;;;;;;10.56;94.98;99318.34;4932104;29;20062;-59
2022/09/30 03:26:47;;;;;;;13.13;7.68;;;;;;;10.56;94.76;99307.94;4902931;29;20075;-61
2022/09/30 03:29:37;;;;;;;12.43;6.88;;;;;;;10.55;95.01;99314.03;4917348;29;20562;-58
2022/09/30 03:32:14;;;;;;;15.77;7.82;;;;;;;10.55;95.09;99320.09;4917542;29;20051;-61
2022/09/30 03:35:06;;;;;;;15.73;8.20;;;;;;;10.57;94.79;99314.84;4899979;29;20072;-60
2022/09/30 03:37:55;;;;;;;15.45;7.82;;;;;;;10.61;94.69;99327.63;4916604;29;20087;-59
2022/09/30 03:40:24;;;;;;;;;;;;;;;10.65;94.71;99322.31;4929869;29;20051;-60
2022/09/30 03:42:59;;;;;;;12.30;7.53;;;;;;;10.62;94.70;99320.69;4917685;29;19923;-59
2022/09/30 03:45:54;;;;;;;14.60;8.43;;;;;;;10.61;94.95;99306.00;4918115;29;20102;-57
2022/09/30 03:48:21;;;;;;;14.25;8.38;;;;;;;10.60;94.76;99314.69;4918084;29;20055;-59
2022/09/30 03:50:49;;;;;;;12.73;8.20;;;;;;;10.58;94.83;99311.28;4934595;29;20039;-59
2022/09/30 03:53:16;;;;;;;14.85;7.88;;;;;;;10.56;94.81;99300.97;4935242;29;20579;-59
2022/09/30 03:55:48;;;;;;;15.27;8.15;;;;;;;10.56;94.57;99303.59;4917488;29;20422;-60
2022/09/30 03:58:16;;;;;;;14.50;7.60;;;;;;;10.40;94.58;99283.47;4917195;29;20048;-60
2022/09/30 04:00:50;;;;;;;12.23;7.53;;;;;;;10.51;94.95;99299.47;4934031;29;20051;-59
2022/09/30 04:03:18;;;;;;;13.27;7.70;;;;;;;10.57;94.52;99304.44;4934985;29;20531;-60
2022/09/30 04:05:46;;;;;;;10.85;7.20;;;;;;;10.31;94.56;99269.06;4916146;29;20515;-59
2022/09/30 04:08:12;;;;;;;14.27;8.00;;;;;;;10.61;94.21;99306.84;4931560;29;20043;-59
2022/09/30 04:10:43;;;;;;;12.27;7.70;;;;;;;10.66;94.44;99314.44;4932269;29;20048;-60
2022/09/30 04:13:10;;;;;;;14.98;8.05;;;;;;;10.73;93.64;99321.06;4914595;29;20292;-59
2022/09/30 04:15:36;;;;;;;11.68;7.28;;;;;;;10.79;93.37;99332.97;4933649;29;20047;-58
2022/09/30 04:18:05;;;;;;;13.25;7.40;;;;;;;10.81;92.99;99334.63;4934524;29;20047;-59
2022/09/30 04:20:32;;;;;;;10.60;6.85;;;;;;;10.81;92.88;99321.63;4934291;29;20411;-58
2022/09/30 04:22:58;;;;;;;12.65;7.72;;;;;;;10.87;91.70;99326.56;4934608;29;20134;-59
2022/09/30 04:25:26;;;;;;;13.15;8.05;;;;;;;10.90;91.84;99336.00;4917116;29;20043;-58
2022/09/30 04:27:51;;;;;;;11.73;7.03;;;;;;;10.93;91.71;99325.47;4931282;29;20071;-60
2022/09/30 04:30:25;;;;;;;14.85;7.55;;;;;;;10.85;91.23;99314.53;4933719;29;20570;-59
2022/09/30 04:32:52;;;;;;;12.30;7.05;;;;;;;11.00;90.59;99335.56;4934579;29;20530;-61
2022/09/30 04:35:18;;;;;;;15.55;7.50;;;;;;;11.03;90.45;99329.38;4934042;29;20040;-59
2022/09/30 04:37:50;;;;;;;12.52;7.47;;;;;;;11.05;90.77;99330.16;4933664;29;20456;-58
2022/09/30 04:40:16;;;;;;;14.45;7.60;;;;;;;11.12;90.12;99335.94;4917172;29;20050;-59
2022/09/30 04:42:42;;;;;;;11.13;6.60;;;;;;;11.04;89.59;99302.47;4933207;29;20423;-59
2022/09/30 04:45:12;;;;;;;13.75;6.65;;;;;;;11.26;88.75;99325.78;4933533;29;20126;-60
2022/09/30 04:47:44;;;;;;;14.80;7.50;;;;;;;11.32;88.84;99330.75;4933309;29;20044;-60
2022/09/30 04:50:14;;;;;;;12.18;7.15;;;;;;;11.36;88.21;99329.69;4932857;29;20202;-60
2022/09/30 04:52:46;;;;;;;11.15;7.30;;;;;;;11.36;87.71;99337.50;4933854;29;20055;-62
2022/09/30 04:55:12;;;;;;;10.88;6.85;;;;;;;11.27;87.28;99325.75;4931888;29;20062;-59
2022/09/30 04:57:44;;;;;;;13.60;6.60;;;;;;;11.32;86.94;99315.97;4932321;29;20126;-59
2022/09/30 05:00:35;;;;;;;11.23;6.60;;;;;;;11.56;87.01;99339.25;4932385;29;20075;-60
2022/09/30 05:03:00;;;;;;;11.02;7.10;;;;;;;11.61;86.43;99335.53;4933276;29;20052;-62
2022/09/30 05:05:31;;;;;;;12.85;7.10;;;;;;;11.65;86.29;99331.03;4932566;29;20031;-59
2022/09/30 05:08:02;;;;;;;13.65;7.40;;;;;;;11.58;85.37;99327.84;4931833;29;20142;-59
2022/09/30 05:10:29;;;;;;;12.13;7.53;;;;;;;11.66;85.39;99328.38;4931016;29;20054;-60
2022/09/30 05:12:56;;;;;;;12.77;6.38;;;;;;;11.71;85.13;99323.81;4932732;29;20051;-61
2022/09/30 05:15:24;;;;;;;13.32;7.00;;;;;;;11.74;84.51;99326.28;4932243;29;20031;-59
2022/09/30 05:17:52;;;;;;;;;;;;;;;11.85;84.49;99334.47;4932954;29;20043;-60
2022/09/30 05:20:19;;;;;;;11.65;6.55;;;;;;;11.86;84.03;99345.75;4932590;29;19977;-59
2022/09/30 05:22:46;;;;;;;20.90;10.98;;;;;;;11.91;84.01;99342.94;4932656;29;20036;-61
2022/09/30 05:25:12;;;;;;;10.48;6.50;;;;;;;11.92;83.66;99337.66;4932690;29;20431;-58
2022/09/30 05:27:40;;;;;;;13.13;6.78;;;;;;;11.98;82.93;99350.41;4931121;29;20097;-59
2022/09/30 05:30:07;;;;;;;12.65;7.70;;;;;;;11.99;82.83;99333.84;4909902;29;20058;-60
2022/09/30 05:32:35;;;;;;;9.48;6.60;;;;;;;12.05;82.48;99341.38;4931840;29;20043;-60
2022/09/30 05:35:02;;;;;;;13.30;7.03;;;;;;;11.97;82.25;99306.19;4933002;29;20036;-61
2022/09/30 05:37:29;;;;;;;14.50;6.65;;;;;;;12.18;81.53;99342.53;4932256;29;20128;-60
2022/09/30 05:39:55;;;;;;;13.93;6.63;;;;;;;12.21;81.62;99341.53;4933199;29;20051;-59
2022/09/30 05:42:31;;;;;;;9.95;6.32;;;;;;;12.20;81.30;99348.50;4932407;29;20043;-58
2022/09/30 05:44:57;;;;;;;8.88;6.07;;;;;;;12.19;80.29;99351.19;4932686;29;20047;-61
2022/09/30 05:47:25;;;;;;;11.52;6.43;;;;;;;12.18;80.46;99347.72;4913579;29;20052;-59
2022/09/30 05:49:53;;;;;;;10.57;6.43;;;;;;;12.23;79.96;99350.13;4932946;29;20048;-60
2022/09/30 05:52:21;;;;;;;9.73;6.90;;;;;;;12.32;80.02;99345.31;4932277;29;20541;-59
2022/09/30 05:54:47;;;;;;;17.92;6.72;;;;;;;12.41;79.15;99338.81;4932559;29;20043;-60
2022/09/30 05:57:13;;;;;;;11.32;6.25;;;;;;;12.52;79.00;99339.16;4932038;29;20040;-59
2022/09/30 05:59:41;;;;;;;15.68;6.35;;;;;;;12.64;78.59;99345.56;4931288;29;20047;-60
2022/09/30 06:02:08;;;;;;;10.32;6.40;;;;;;;12.62;78.02;99321.31;4929937;29;20032;-60
2022/09/30 06:04:36;;;;;;;10.45;6.07;;;;;;;12.88;77.36;99346.13;4927637;29;20578;-60
2022/09/30 06:07:02;;;;;;;14.07;6.90;;;;;;;12.90;76.47;99345.13;4928369;29;20052;-59
2022/09/30 06:09:29;;;;;;;13.98;6.55;;;;;;;12.74;76.37;99308.53;4930406;29;20070;-60
2022/09/30 06:11:59;;;;;;;11.30;6.50;;;;;;;13.11;75.93;99344.09;4932046;29;20054;-60
2022/09/30 06:14:27;;;;;;;11.73;6.55;;;;;;;13.12;74.98;99335.38;4915337;29;20040;-59
2022/09/30 06:16:54;;;;;;;12.85;6.07;;;;;;;13.17;74.44;99335.13;4932592;29;20532;-59
2022/09/30 06:19:20;;;;;;;13.73;6.47;;;;;;;13.25;74.27;99335.56;4932444;29;20214;-61
2022/09/30 06:21:46;;;;;;;12.90;7.13;;;;;;;13.45;73.72;99345.84;4915265;29;20047;-58
2022/09/30 06:24:13;;;;;;;10.25;6.40;;;;;;;13.45;73.22;99343.22;4929939;29;20400;-59
2022/09/30 06:26:39;;;;;;;12.80;6.63;;;;;;;13.57;72.79;99353.03;4913481;29;20107;-61
2022/09/30 06:29:05;;;;;;;12.07;6.90;;;;;;;13.62;72.29;99351.97;4914344;29;20043;-60
2022/09/30 06:31:31;;;;;;;15.40;6.32;;;;;;;13.70;71.77;99342.81;4931902;29;20039;-61
2022/09/30 06:33:57;;;;;;;11.30;6.30;;;;;;;13.88;71.37;99348.81;4932099;29;20091;-59
2022/09/30 06:36:23;;;;;;;11.68;6.25;;;;;;;13.92;70.63;99339.91;4912714;29;20067;-60
2022/09/30 06:38:53;;;;;;;15.20;6.35;;;;;;;13.92;70.52;99351.19;4930529;29;20039;-60
2022/09/30 06:41:26;;;;;;;10.82;6.07;;;;;;;13.94;70.05;99351.97;4932025;29;20071;-59
2022/09/30 06:43:52;;;;;;;16.23;6.70;;;;;;;13.92;69.94;99345.97;4932691;29;20106;-60
2022/09/30 06:46:22;;;;;;;16.25;6.25;;;;;;;13.99;69.78;99347.34;4918446;29;20039;-60
2022/09/30 06:48:57;;;;;;;13.23;7.07;;;;;;;14.04;69.82;99344.47;4933509;29;20404;-54
2022/09/30 06:51:25;;;;;;;12.68;6.40;;;;;;;14.10;69.28;99349.38;4931278;29;20047;-61
2022/09/30 06:53:52;;;;;;;21.23;6.50;;;;;;;14.26;68.94;99354.63;4933361;28;20039;-61
2022/09/30 06:56:18;;;;;;;12.70;7.00;;;;;;;14.37;67.96;99324.38;4929776;29;20125;-59
2022/09/30 06:58:45;;;;;;;12.07;7.07;;;;;;;15.37;66.84;99351.75;4898079;29;20648;-58
2022/09/30 07:01:14;;;;;;;13.98;6.40;;;;;;;16.32;64.35;99355.53;4915124;29;20043;-55
2022/09/30 07:03:43;;;;;;;14.33;6.90;;;;;;;16.44;63.57;99348.66;4930146;29;20067;-61
2022/09/30 07:06:10;;;;;;;18.10;7.18;;;;;;;16.54;62.92;99353.22;4926127;29;20055;-61
2022/09/30 07:08:37;;;;;;;10.93;7.20;;;;;;;16.70;61.72;99352.25;4931546;29;20039;-59
2022/09/30 07:11:15;;;;;;;11.52;7.00;;;;;;;17.19;60.36;99329.72;4908455;29;20050;-62
2022/09/30 07:13:44;;;;;;;8.80;6.13;;;;;;;17.72;59.24;99351.56;4904674;29;20043;-56
2022/09/30 07:16:12;;;;;;;17.80;6.65;;;;;;;18.01;58.32;99347.72;4910098;29;20360;-55
2022/09/30 07:18:42;;;;;;;15.40;6.55;;;;;;;17.90;57.78;99359.97;4926671;29;20043;-59
2022/09/30 07:21:14;;;;;;;11.35;6.70;;;;;;;17.61;57.90;99354.06;4913885;29;20487;-57
2022/09/30 07:23:47;;;;;;;20.73;7.68;;;;;;;17.03;58.17;99359.72;4925686;29;20047;-60
2022/09/30 07:26:15;;;;;;;10.50;6.57;;;;;;;16.84;58.79;99363.56;4928852;29;20050;-63
2022/09/30 07:28:42;;;;;;;10.98;6.88;;;;;;;16.86;58.82;99361.66;4927763;29;20122;-61
2022/09/30 07:31:16;;;;;;;11.85;6.88;;;;;;;16.67;58.77;99315.72;4914968;29;20666;-58
2022/09/30 07:33:43;;;;;;;14.35;7.50;;;;;;;17.01;58.62;99338.81;4926071;29;20048;-59
2022/09/30 07:36:11;;;;;;;13.23;6.63;;;;;;;17.32;58.05;99350.78;4912494;29;20550;-60
2022/09/30 07:38:39;;;;;;;14.30;6.85;;;;;;;17.13;57.82;99326.66;4928995;29;20736;-59
2022/09/30 07:41:14;;;;;;;12.77;7.13;;;;;;;17.44;57.60;99347.28;4923264;29;20194;-61
2022/09/30 07:43:45;;;;;;;14.45;7.13;;;;;;;17.91;56.36;99359.84;4926957;29;20071;-61
2022/09/30 07:46:16;;;;;;;15.30;7.20;;;;;;;18.09;55.86;99360.34;4930037;29;20519;-60
2022/09/30 07:48:49;;;;;;;14.48;7.00;;;;;;;17.96;56.42;99370.03;4926520;29;20134;-59
2022/09/30 07:51:31;;;;;;;12.38;7.60;;;;;;;17.74;56.48;99357.56;4928187;29;20046;-62
2022/09/30 07:54:00;;;;;;;13.57;7.18;;;;;;;17.47;57.00;99359.41;4929137;28;20039;-59
2022/09/30 07:56:27;;;;;;;12.93;7.05;;;;;;;17.32;57.31;99364.72;4930107;29;20511;-52
2022/09/30 07:58:56;;;;;;;13.18;7.63;;;;;;;17.08;57.86;99363.75;4911353;29;20039;-48
2022/09/30 08:01:47;;;;;;;14.95;7.90;;;;;;;16.82;58.62;99356.72;4911512;29;20455;-52
2022/09/30 08:04:14;;;;;;;15.93;7.50;;;;;;;16.76;58.75;99344.84;4926105;29;20103;-52
2022/09/30 08:06:48;;;;;;;16.77;7.75;;;;;;;16.83;58.88;99351.38;4898928;29;20046;-56
2022/09/30 08:09:17;;;;;;;21.95;9.65;;;;;;;16.86;58.72;99347.69;4932173;29;20040;-51
2022/09/30 08:11:43;;;;;;;15.60;8.43;;;;;;;16.82;58.88;99349.69;4930744;29;20043;-53
2022/09/30 08:14:16;;;;;;;13.13;8.30;;;;;;;16.99;59.02;99358.25;4934082;29;20065;-51
2022/09/30 08:16:44;;;;;;;17.95;8.23;;;;;;;16.99;58.73;99324.97;4912326;29;20048;-54
2022/09/30 08:19:19;;;;;;;14.65;7.80;;;;;;;17.14;58.55;99350.19;4915660;29;20036;-48
2022/09/30 08:21:48;;;;;;;16.92;8.70;;;;;;;16.82;59.13;99322.59;4930177;29;20047;-49
2022/09/30 08:24:14;;;;;;;17.27;8.18;;;;;;;16.86;59.23;99326.69;4913505;29;20046;-50
2022/09/30 08:26:42;;;;;;;17.42;8.63;;;;;;;17.61;58.51;99343.56;4913146;29;20040;-50
2022/09/30 08:29:10;;;;;;;19.17;8.65;;;;;;;18.75;55.83;99315.19;4899143;29;20044;-49
2022/09/30 08:31:37;;;;;;;16.42;8.13;;;;;;;20.20;53.42;99341.88;4931048;29;20487;-49
2022/09/30 08:34:02;;;;;;;14.00;8.45;;;;;;;21.35;51.36;99345.63;4915457;29;20051;-50
2022/09/30 08:36:29;;;;;;;12.65;8.50;;;;;;;22.11;49.80;99317.91;4916877;29;20039;-49
2022/09/30 08:38:55;;;;;;;19.10;8.63;;;;;;;22.90;47.45;99336.47;4932365;29;20110;-51
2022/09/30 08:41:37;;;;;;;14.30;8.23;;;;;;;23.70;45.76;99336.16;4932664;29;20051;-49
2022/09/30 08:44:25;;;;;;;21.20;8.75;;;;;;;23.92;44.75;99338.41;4946860;29;20039;-49
2022/09/30 08:47:02;;;;;;;17.05;8.90;;;;;;;22.78;45.52;99339.25;4931424;29;20087;-52
2022/09/30 08:49:43;;;;;;;12.30;9.07;;;;;;;21.91;47.11;99334.66;4932181;29;20118;-51
2022/09/30 08:52:15;;;;;;;15.73;9.30;;;;;;;21.14;48.52;99332.38;4932196;29;20598;-50
2022/09/30 08:54:46;;;;;;;14.85;9.75;;;;;;;21.06;49.12;99326.88;4911413;29;20040;-48
2022/09/30 08:57:12;;;;;;;17.98;9.65;;;;;;;21.23;48.74;99327.31;4913931;29;20457;-46
2022/09/30 08:59:54;;;;;;;18.58;9.63;;;;;;;22.07;47.46;99334.19;4899066;29;20112;-47
2022/09/30 09:02:28;;;;;;;14.43;9.45;;;;;;;21.97;47.66;99328.88;4879822;29;20051;-50
2022/09/30 09:04:58;;;;;;;16.92;8.70;;;;;;;21.98;47.98;99321.75;4932112;29;20039;-49
2022/09/30 09:07:45;;;;;;;17.27;10.15;;;;;;;21.63;48.16;99319.47;4933592;29;20044;-55
2022/09/30 09:10:20;;;;;;;15.93;9.63;;;;;;;21.10;49.10;99314.22;4924116;29;20040;-50
2022/09/30 09:13:24;;;;;;;18.80;9.68;;;;;;;20.67;50.13;99324.88;4920586;29;20424;-54
2022/09/30 09:16:01;;;;;;;15.73;10.18;;;;;;;20.35;50.71;99302.88;4914747;29;20048;-55
2022/09/30 09:18:40;;;;;;;13.63;9.75;;;;;;;20.27;50.96;99314.00;4932352;29;20579;-49
2022/09/30 09:21:29;;;;;;;15.65;9.77;;;;;;;20.89;50.25;99330.06;4908337;29;20054;-51
2022/09/30 09:24:01;;;;;;;20.73;9.57;;;;;;;22.04;48.17;99331.78;4930232;29;20036;-53
2022/09/30 09:26:35;;;;;;;13.65;9.95;;;;;;;22.99;46.26;99339.13;4916209;29;20135;-49
2022/09/30 09:29:16;;;;;;;20.45;9.40;;;;;;;22.26;47.24;99336.91;4914180;29;20044;-51
2022/09/30 09:31:43;;;;;;;18.40;9.75;;;;;;;22.39;47.02;99337.50;4929593;29;20052;-53
2022/09/30 09:34:10;;;;;;;13.48;9.75;;;;;;;23.04;46.17;99328.94;4915374;29;20044;-54
2022/09/30 09:36:42;;;;;;;15.10;9.73;;;;;;;24.63;43.52;99328.03;4915543;29;20078;-49
2022/09/30 09:39:30;;;;;;;13.70;9.68;;;;;;;25.02;42.00;99328.59;4929364;29;20740;-56
2022/09/30 09:42:15;;;;;;;13.98;9.25;;;;;;;24.05;43.65;99330.97;4928000;29;20112;-54
2022/09/30 09:44:56;;;;;;;16.17;9.32;;;;;;;23.90;43.48;99322.66;4925542;29;20537;-52
2022/09/30 09:47:22;;;;;;;12.73;9.35;;;;;;;23.39;45.05;99319.56;4917426;29;20547;-54
2022/09/30 09:50:02;;;;;;;13.90;9.25;;;;;;;24.33;43.58;99323.88;4930665;29;20043;-51
2022/09/30 09:53:03;;;;;;;15.23;9.63;;;;;;;25.47;41.47;99320.47;4932240;29;20115;-50
2022/09/30 09:55:29;;;;;;;14.55;9.68;;;;;;;24.53;42.20;99321.94;4927916;29;20111;-57
2022/09/30 09:58:06;;;;;;;13.27;10.93;;;;;;;22.44;45.59;99286.75;4932277;29;20558;-55
2022/09/30 10:03:28;;;;;;;17.52;11.23;;;;;;;20.62;50.76;99324.41;4929941;29;20063;-56
2022/09/30 10:09:00;;;;;;;18.15;10.80;;;;;;;21.52;49.57;99323.88;4929275;29;20047;-50
2022/09/30 10:12:11;;;;;;;15.90;11.20;;;;;;;20.89;51.03;99316.84;4928815;29;20059;-51
2022/09/30 10:14:45;;;;;;;17.05;10.68;;;;;;;20.47;52.10;99315.91;4913404;29;20451;-51
2022/09/30 10:17:33;;;;;;;20.00;11.98;;;;;;;20.04;53.58;99315.84;4914514;29;20039;-50
2022/09/30 10:20:17;;;;;;;18.50;11.02;;;;;;;19.76;54.48;99311.03;4929519;29;20073;-50
2022/09/30 10:22:43;;;;;;;17.80;10.65;;;;;;;19.43;55.47;99320.56;4914116;29;20126;-48
2022/09/30 10:25:22;;;;;;;17.13;11.30;;;;;;;19.18;56.48;99317.28;4931723;29;20635;-49
2022/09/30 10:27:57;;;;;;;19.88;11.95;;;;;;;19.26;56.76;99317.56;4929831;29;20048;-49
2022/09/30 10:30:42;;;;;;;16.35;11.02;;;;;;;20.14;55.27;99298.31;4914479;29;20043;-49
2022/09/30 10:33:45;;;;;;;16.98;11.55;;;;;;;20.20;55.35;99307.56;4915084;29;20098;-54
2022/09/30 10:36:14;;;;;;;19.50;11.38;;;;;;;21.31;53.67;99311.63;4911614;29;20591;-51
2022/09/30 10:38:56;;;;;;;18.35;11.05;;;;;;;22.90;49.87;99313.47;4926101;29;20118;-50
2022/09/30 10:41:28;;;;;;;17.02;11.75;;;;;;;23.35;48.96;99312.84;4923998;29;20071;-52
2022/09/30 10:43:59;;;;;;;18.95;11.80;;;;;;;23.59;48.04;99311.44;4915150;29;20503;-51
2022/09/30 10:46:37;;;;;;;18.15;11.55;;;;;;;23.79;47.62;99311.38;4897748;29;20063;-53
2022/09/30 10:49:11;;;;;;;18.85;11.85;;;;;;;23.84;47.61;99314.44;4915050;29;20138;-49
2022/09/30 10:51:37;;;;;;;17.17;11.90;;;;;;;23.45;47.83;99313.66;4914874;29;20053;-50
2022/09/30 10:54:39;;;;;;;20.00;11.30;;;;;;;23.11;48.36;99308.84;4931770;29;20052;-51
2022/09/30 10:57:35;;;;;;;20.38;12.05;;;;;;;22.30;49.87;99322.41;4922987;29;20419;-49
2022/09/30 11:00:16;;;;;;;18.67;11.45;;;;;;;21.83;51.21;99310.63;4916289;29;20063;-47
2022/09/30 11:02:48;;;;;;;17.85;12.55;;;;;;;21.34;51.76;99269.91;4912661;29;20052;-50
2022/09/30 11:05:18;;;;;;;18.85;12.50;;;;;;;21.35;52.18;99305.13;4900824;29;20039;-51
2022/09/30 11:08:00;;;;;;;22.52;11.75;;;;;;;21.05;52.46;99274.97;4914348;29;20427;-48
2022/09/30 11:10:55;;;;;;;17.15;11.70;;;;;;;21.31;52.58;99301.88;4913149;29;20470;-47
2022/09/30 11:13:50;;;;;;;15.43;9.98;;;;;;;21.69;51.48;99314.50;4898089;29;20110;-49
2022/09/30 11:16:41;;;;;;;13.68;9.82;;;;;;;21.17;52.18;99306.66;4907574;29;20499;-48
2022/09/30 11:19:20;;;;;;;12.38;9.05;;;;;;;20.78;52.88;99297.56;4914260;29;20043;-50
2022/09/30 11:22:05;;;;;;;;;;;;;;;20.70;53.31;99296.41;4915766;29;20095;-53
2022/09/30 11:24:44;;;;;;;16.35;9.65;;;;;;;20.59;53.61;99303.50;4912468;29;19974;-53
2022/09/30 11:27:49;;;;;;;14.70;10.43;;;;;;;20.49;54.02;99306.06;4907088;29;20055;-52
2022/09/30 11:30:39;;;;;;;19.63;10.48;;;;;;;20.46;54.80;99300.22;4869790;29;20080;-48
2022/09/30 11:33:24;;;;;;;16.88;11.02;;;;;;;20.30;55.04;99282.94;4870335;29;20540;-54
2022/09/30 11:36:12;;;;;;;19.73;11.65;;;;;;;20.19;56.10;99297.94;4885183;29;20059;-50
2022/09/30 11:38:51;;;;;;;17.50;10.80;;;;;;;20.12;56.58;99312.59;4910040;29;20036;-48
2022/09/30 11:41:27;;;;;;;21.35;11.48;;;;;;;20.02;56.82;99315.13;4916664;29;20040;-49
2022/09/30 11:44:15;;;;;;;20.70;11.20;;;;;;;20.01;57.12;99310.78;4911051;29;20305;-55
2022/09/30 11:47:09;;;;;;;17.17;10.38;;;;;;;20.08;57.05;99327.00;4927488;29;20131;-50
2022/09/30 11:50:00;;;;;;;17.42;10.50;;;;;;;19.76;57.76;99326.88;4907297;29;20094;-52
2022/09/30 11:52:32;;;;;;;15.93;10.57;;;;;;;19.48;58.49;99325.50;4924675;29;20075;-51
2022/09/30 11:55:00;;;;;;;14.55;10.05;;;;;;;19.45;58.76;99329.25;4930158;29;20077;-49
2022/09/30 11:58:12;;;;;;;15.80;10.68;;;;;;;19.47;58.79;99323.03;4928237;29;20031;-50
2022/09/30 12:00:44;;;;;;;13.90;8.88;;;;;;;19.36;58.84;99335.19;4937764;29;20546;-50
2022/09/30 12:03:28;;;;;;;13.70;9.35;;;;;;;19.12;59.39;99339.66;4918345;29;20527;-53
2022/09/30 12:05:54;;;;;;;13.98;8.73;;;;;;;18.89;59.95;99338.72;4916104;29;20061;-51
2022/09/30 12:08:34;;;;;;;19.63;9.63;;;;;;;18.76;60.37;99342.38;4917344;29;20408;-53